Time;durP1;ratioP1;P1;durP2;ratioP2;P2;SDS_P1;SDS_P2;PMS_P1;PMS_P2;Temp;Humidity;BMP_temperature;BMP_pressure;BME280_temperature;BME280_humidity;BME280_pressure;Samples;Min_cycle;Max_cycle;Signal;HPM_P1;HPM_P2
2020/12/13 00:00:35;;;;;;;67.73;27.50;;;;;;;0.90;86.69;100406.16;5073253;28;20127;-69
2020/12/13 00:03:01;;;;;;;68.57;26.73;;;;;;;0.93;86.95;100414.66;5072367;28;20362;-69
2020/12/13 00:05:28;;;;;;;69.28;28.73;;;;;;;0.93;86.98;100414.66;5055734;28;20113;-69
2020/12/13 00:07:53;;;;;;;65.72;26.33;;;;;;;0.91;86.92;100418.34;5073121;28;20579;-68
2020/12/13 00:10:20;;;;;;;68.30;28.33;;;;;;;0.88;86.50;100423.81;5073293;28;20036;-69
2020/12/13 00:12:46;;;;;;;65.18;25.38;;;;;;;0.88;87.01;100421.19;5072940;28;20497;-68
2020/12/13 00:15:11;;;;;;;62.50;27.77;;;;;;;0.83;86.83;100416.25;5072175;28;20040;-68
2020/12/13 00:17:36;;;;;;;70.72;28.85;;;;;;;0.88;86.76;100418.56;5072564;28;20048;-69
2020/12/13 00:20:06;;;;;;;66.67;28.73;;;;;;;0.92;87.03;100422.66;5072977;28;20064;-69
2020/12/13 00:22:32;;;;;;;76.75;33.75;;;;;;;0.97;86.98;100420.53;5072885;28;20039;-68
2020/12/13 00:24:57;;;;;;;67.50;25.85;;;;;;;0.96;86.99;100419.72;5072007;28;20040;-69
2020/12/13 00:27:23;;;;;;;78.40;30.07;;;;;;;0.99;86.82;100432.63;5072478;28;20038;-69
2020/12/13 00:29:48;;;;;;;75.30;38.93;;;;;;;0.97;86.84;100434.50;5072916;28;20032;-68
2020/12/13 00:32:13;;;;;;;72.17;29.83;;;;;;;0.99;86.98;100437.03;5055199;28;20036;-68
2020/12/13 00:34:39;;;;;;;62.25;25.00;;;;;;;0.96;86.83;100438.09;5071755;28;20500;-69
2020/12/13 00:37:05;;;;;;;66.82;25.55;;;;;;;0.92;86.78;100436.63;5071593;28;20039;-68
2020/12/13 00:39:30;;;;;;;72.78;32.65;;;;;;;0.94;87.13;100439.16;5071563;28;20171;-69
2020/12/13 00:41:56;;;;;;;62.80;23.27;;;;;;;0.92;87.23;100439.25;5072533;28;20389;-68
2020/12/13 00:44:22;;;;;;;75.97;26.77;;;;;;;0.95;86.98;100440.84;5071633;28;20039;-68
2020/12/13 00:46:48;;;;;;;66.53;25.90;;;;;;;0.92;87.24;100447.16;5054601;28;20283;-69
2020/12/13 00:49:14;;;;;;;66.25;25.58;;;;;;;0.98;87.08;100457.25;5054742;28;20136;-68
2020/12/13 00:51:40;;;;;;;56.97;26.30;;;;;;;0.95;87.14;100448.72;5071434;28;20040;-69
2020/12/13 00:54:05;;;;;;;57.15;25.73;;;;;;;0.91;87.23;100448.09;5071332;28;20029;-68
2020/12/13 00:56:31;;;;;;;59.65;27.58;;;;;;;0.93;87.48;100453.25;5069960;28;20044;-69
2020/12/13 00:58:56;;;;;;;65.97;26.42;;;;;;;0.96;87.10;100445.13;5071325;28;20609;-68
2020/12/13 01:01:22;;;;;;;62.33;26.07;;;;;;;0.89;87.11;100444.75;5072128;28;20045;-68
2020/12/13 01:03:47;;;;;;;61.43;25.37;;;;;;;0.92;87.01;100462.09;5072069;28;20040;-68
2020/12/13 01:06:31;;;;;;;64.30;26.33;;;;;;;0.88;87.36;100456.19;5071904;28;20044;-69
2020/12/13 01:08:56;;;;;;;62.20;25.67;;;;;;;0.97;87.18;100450.28;5071847;28;20036;-68
2020/12/13 01:11:30;;;;;;;66.32;26.35;;;;;;;0.99;87.19;100453.66;5071998;28;20047;-69
2020/12/13 01:13:57;;;;;;;66.95;24.95;;;;;;;1.01;87.02;100457.03;5071986;28;20044;-69
2020/12/13 01:16:23;;;;;;;59.17;24.35;;;;;;;0.92;87.04;100459.47;5070680;28;20037;-68
2020/12/13 01:18:49;;;;;;;68.13;28.58;;;;;;;0.92;86.44;100457.66;5071918;28;20033;-69
2020/12/13 01:21:16;;;;;;;67.73;24.53;;;;;;;0.96;87.34;100450.38;5071765;28;20036;-68
2020/12/13 01:23:42;;;;;;;61.70;26.67;;;;;;;1.01;86.88;100464.06;5071576;28;20362;-68
2020/12/13 01:26:10;;;;;;;61.30;24.58;;;;;;;1.03;86.63;100456.88;5071445;28;20087;-69
2020/12/13 01:28:35;;;;;;;59.28;25.10;;;;;;;0.99;86.84;100458.06;5071720;28;20071;-69
2020/12/13 01:31:00;;;;;;;58.03;22.27;;;;;;;1.07;86.64;100466.25;5054024;28;20028;-68
2020/12/13 01:33:26;;;;;;;57.73;23.23;;;;;;;1.05;86.58;100468.16;5070771;28;20377;-69
2020/12/13 01:35:51;;;;;;;61.80;25.80;;;;;;;1.06;86.85;100464.59;5071437;28;20445;-68
2020/12/13 01:38:16;;;;;;;58.20;25.50;;;;;;;1.04;86.55;100463.84;5071455;28;20036;-68
2020/12/13 01:40:42;;;;;;;58.03;25.00;;;;;;;1.09;86.75;100468.78;5071482;28;20040;-69
2020/12/13 01:43:07;;;;;;;58.30;22.47;;;;;;;1.02;86.71;100463.94;5070583;28;20036;-69
2020/12/13 01:45:33;;;;;;;62.75;24.88;;;;;;;1.02;86.82;100465.75;5071446;28;20043;-68
2020/12/13 01:47:58;;;;;;;62.93;24.87;;;;;;;1.08;86.48;100467.94;5071358;28;20102;-69
2020/12/13 01:53:14;;;;;;;59.10;24.98;;;;;;;1.10;86.45;100462.56;5070253;28;20043;-69
2020/12/13 01:55:47;;;;;;;58.67;24.80;;;;;;;1.01;86.42;100471.97;5071073;28;20066;-68
2020/12/13 01:58:31;;;;;;;56.15;26.35;;;;;;;1.01;86.37;100472.78;5070340;28;20058;-68
2020/12/13 02:00:59;;;;;;;63.38;24.02;;;;;;;0.97;86.91;100475.75;5070277;28;20036;-69
2020/12/13 02:03:32;;;;;;;66.93;25.50;;;;;;;1.05;87.09;100483.91;5071118;28;20040;-69
2020/12/13 02:06:01;;;;;;;55.75;24.50;;;;;;;1.00;86.80;100486.03;5070024;28;20489;-68
2020/12/13 02:08:38;;;;;;;60.45;25.42;;;;;;;1.02;86.63;100487.59;5070850;28;20102;-68
2020/12/13 02:11:04;;;;;;;59.22;26.65;;;;;;;1.00;86.90;100486.88;5053573;28;20129;-69
2020/12/13 02:13:29;;;;;;;59.50;23.80;;;;;;;0.97;86.88;100486.25;5071080;28;20033;-68
2020/12/13 02:15:55;;;;;;;69.77;27.30;;;;;;;0.98;86.95;100491.41;5070881;28;20132;-68
2020/12/13 02:18:20;;;;;;;62.97;23.10;;;;;;;0.96;87.26;100495.06;5071141;28;20165;-69
2020/12/13 02:20:45;;;;;;;60.00;23.93;;;;;;;0.98;87.03;100507.19;5071008;28;20450;-69
2020/12/13 02:23:11;;;;;;;60.67;25.10;;;;;;;0.96;87.12;100505.59;5070118;28;20040;-68
2020/12/13 02:25:36;;;;;;;66.03;25.93;;;;;;;0.94;87.12;100503.09;5070612;28;20048;-68
2020/12/13 02:28:02;;;;;;;64.60;27.83;;;;;;;0.97;87.07;100507.28;5070100;28;20454;-68
2020/12/13 02:30:28;;;;;;;;;;;;;;;0.97;86.92;100494.97;5071385;28;20739;-69
2020/12/13 02:32:53;;;;;;;58.53;25.00;;;;;;;0.96;86.96;100509.09;5071012;28;20018;-68
2020/12/13 02:35:18;;;;;;;61.37;24.97;;;;;;;0.94;86.85;100513.59;5070080;28;20101;-68
2020/12/13 02:37:44;;;;;;;67.93;26.23;;;;;;;1.00;87.01;100507.06;5070660;28;20333;-69
2020/12/13 02:40:09;;;;;;;57.97;25.17;;;;;;;0.94;86.77;100507.50;5053153;28;20040;-68
2020/12/13 02:42:34;;;;;;;59.43;23.67;;;;;;;0.99;87.00;100510.66;5069979;28;20040;-68
2020/12/13 02:45:01;;;;;;;59.07;25.57;;;;;;;0.95;86.90;100514.44;5070791;28;20048;-69
2020/12/13 02:47:27;;;;;;;57.67;25.27;;;;;;;0.89;87.00;100506.97;5069630;28;20047;-68
2020/12/13 02:49:52;;;;;;;57.20;22.85;;;;;;;0.87;86.90;100509.72;5070881;28;20032;-68
2020/12/13 02:52:18;;;;;;;56.13;24.20;;;;;;;0.92;86.99;100509.41;5069865;28;20040;-68
2020/12/13 02:54:43;;;;;;;62.90;25.75;;;;;;;0.91;86.83;100507.69;5070849;28;20036;-68
2020/12/13 02:57:09;;;;;;;61.80;25.92;;;;;;;0.81;86.94;100510.13;5069430;28;20093;-68
2020/12/13 02:59:34;;;;;;;57.47;23.13;;;;;;;0.84;87.13;100508.16;5070601;28;20037;-68
2020/12/13 03:01:59;;;;;;;58.13;24.83;;;;;;;0.80;87.28;100518.97;5070726;28;20086;-70
2020/12/13 03:04:25;;;;;;;54.47;23.50;;;;;;;0.80;87.49;100511.09;5069777;28;20118;-70
2020/12/13 03:06:50;;;;;;;60.07;21.50;;;;;;;0.75;87.22;100523.69;5070156;28;20109;-70
2020/12/13 03:09:15;;;;;;;58.27;22.60;;;;;;;0.71;87.21;100523.06;5070750;28;20075;-70
2020/12/13 03:11:41;;;;;;;62.93;25.50;;;;;;;0.72;87.54;100534.41;5070626;28;20541;-70
2020/12/13 03:14:07;;;;;;;62.60;25.13;;;;;;;0.68;87.46;100538.19;5070499;28;20051;-70
2020/12/13 03:16:32;;;;;;;;;;;;;;;0.60;87.47;100538.72;5070733;28;20062;-70
2020/12/13 03:18:57;;;;;;;;;;;;;;;0.56;87.34;100532.84;5070778;28;20029;-69
2020/12/13 03:21:23;;;;;;;63.47;24.70;;;;;;;0.48;87.39;100535.13;5074090;28;19939;-69
2020/12/13 03:23:48;;;;;;;59.50;26.43;;;;;;;0.53;87.42;100526.94;5074136;28;20086;-70
2020/12/13 03:26:13;;;;;;;63.63;24.60;;;;;;;0.52;87.56;100546.28;5073116;28;20048;-70
2020/12/13 03:28:39;;;;;;;63.27;24.17;;;;;;;0.38;87.44;100545.41;5072873;28;20106;-70
2020/12/13 03:31:04;;;;;;;58.77;23.63;;;;;;;0.42;87.45;100546.03;5073994;28;20350;-69
2020/12/13 03:33:29;;;;;;;59.03;26.97;;;;;;;0.37;87.76;100548.13;5056287;28;20442;-70
2020/12/13 03:35:55;;;;;;;59.10;23.00;;;;;;;0.37;87.83;100550.75;5072678;28;20572;-69
2020/12/13 03:38:20;;;;;;;68.90;24.93;;;;;;;0.32;87.86;100548.44;5072772;28;20036;-70
2020/12/13 03:40:45;;;;;;;61.97;25.03;;;;;;;0.31;87.87;100551.19;5073767;28;20041;-70
2020/12/13 03:43:11;;;;;;;64.38;26.00;;;;;;;0.31;88.05;100556.44;5072631;28;20084;-69
2020/12/13 03:45:36;;;;;;;67.80;25.73;;;;;;;0.32;88.12;100558.94;5073428;28;20036;-70
2020/12/13 03:48:03;;;;;;;57.53;22.60;;;;;;;0.31;87.87;100562.50;5073755;28;20043;-69
2020/12/13 03:50:38;;;;;;;61.05;23.90;;;;;;;0.30;87.95;100566.06;5073567;28;20028;-70
2020/12/13 03:53:11;;;;;;;67.10;25.13;;;;;;;0.24;88.15;100566.50;5073695;28;20063;-70
2020/12/13 03:55:37;;;;;;;63.00;25.13;;;;;;;0.27;87.89;100571.53;5072333;28;20408;-69
2020/12/13 03:58:03;;;;;;;64.43;26.42;;;;;;;0.23;88.35;100575.28;5072569;28;20051;-70
2020/12/13 04:00:29;;;;;;;63.88;27.75;;;;;;;0.23;88.02;100580.53;5072330;28;20123;-69
2020/12/13 04:02:55;;;;;;;60.70;23.63;;;;;;;0.24;88.36;100573.53;5055577;28;20098;-70
2020/12/13 04:05:22;;;;;;;65.45;24.67;;;;;;;0.17;88.29;100576.53;5073298;28;20040;-70
2020/12/13 04:07:48;;;;;;;67.65;28.38;;;;;;;0.19;88.38;100585.16;5072156;28;20115;-69
2020/12/13 04:10:13;;;;;;;64.53;26.30;;;;;;;0.16;88.47;100574.00;5073127;28;20517;-70
2020/12/13 04:12:38;;;;;;;63.43;25.63;;;;;;;0.31;88.33;100583.53;5072380;28;20036;-70
2020/12/13 04:15:03;;;;;;;64.03;26.40;;;;;;;0.27;88.40;100589.91;5055448;28;20446;-70
2020/12/13 04:17:29;;;;;;;66.77;25.83;;;;;;;0.29;88.43;100585.41;5072777;28;20032;-70
2020/12/13 04:19:54;;;;;;;60.43;24.20;;;;;;;0.32;88.30;100579.94;5071994;28;20039;-70
2020/12/13 04:22:19;;;;;;;66.10;25.23;;;;;;;0.35;88.36;100579.75;5072100;28;20347;-70
2020/12/13 04:24:45;;;;;;;58.17;26.63;;;;;;;0.36;88.15;100580.59;5073008;28;20416;-70
2020/12/13 04:27:10;;;;;;;62.30;24.27;;;;;;;0.32;88.28;100579.94;5072564;28;20476;-70
2020/12/13 04:29:35;;;;;;;66.47;23.70;;;;;;;0.30;88.45;100591.50;5072834;28;20446;-70
2020/12/13 04:32:01;;;;;;;54.50;22.63;;;;;;;0.29;88.38;100588.03;5071954;28;20370;-70
2020/12/13 04:34:26;;;;;;;60.07;25.63;;;;;;;0.32;88.47;100590.44;5071833;28;20112;-70
2020/12/13 04:36:51;;;;;;;64.07;24.47;;;;;;;0.33;88.47;100597.41;5071525;28;20136;-70
2020/12/13 04:39:17;;;;;;;52.47;22.40;;;;;;;0.36;88.57;100596.34;5071698;28;20170;-70
2020/12/13 04:41:42;;;;;;;59.27;23.60;;;;;;;0.39;88.21;100596.16;5072496;28;20036;-69
2020/12/13 04:44:07;;;;;;;57.43;23.93;;;;;;;0.40;88.50;100593.44;5072629;28;20105;-70
2020/12/13 04:46:35;;;;;;;63.87;24.80;;;;;;;0.37;88.29;100596.25;5054556;28;20044;-70
2020/12/13 04:49:00;;;;;;;59.78;23.73;;;;;;;0.38;88.79;100597.94;5072449;28;20044;-70
2020/12/13 04:51:27;;;;;;;54.93;22.80;;;;;;;0.46;88.42;100597.44;5071519;28;20033;-70
2020/12/13 04:54:03;;;;;;;;;;;;;;;0.47;88.30;100598.25;5072893;28;20455;-70
2020/12/13 04:56:32;;;;;;;59.08;24.13;;;;;;;0.48;88.56;100597.34;5072120;28;19927;-70
2020/12/13 04:59:00;;;;;;;50.55;19.88;;;;;;;0.51;88.26;100605.00;5072270;28;20046;-70
2020/12/13 05:01:25;;;;;;;54.05;22.15;;;;;;;0.47;88.48;100606.13;5071229;28;20035;-70
2020/12/13 05:03:50;;;;;;;47.83;20.37;;;;;;;0.50;88.38;100604.16;5072142;28;20036;-69
2020/12/13 05:06:17;;;;;;;57.10;22.50;;;;;;;0.43;88.58;100615.19;5070879;28;20043;-70
2020/12/13 05:08:43;;;;;;;58.03;23.38;;;;;;;0.45;88.53;100615.94;5070902;28;20032;-70
2020/12/13 05:11:08;;;;;;;58.33;22.25;;;;;;;0.44;88.69;100616.84;5072036;28;20041;-70
2020/12/13 05:13:37;;;;;;;48.13;19.97;;;;;;;0.48;88.75;100613.94;5071110;28;20435;-70
2020/12/13 05:16:06;;;;;;;44.30;19.45;;;;;;;0.51;88.66;100621.59;5071571;28;20274;-70
2020/12/13 05:18:31;;;;;;;46.95;19.48;;;;;;;0.50;88.71;100619.09;5071819;28;20075;-70
2020/12/13 05:20:57;;;;;;;44.50;22.50;;;;;;;0.54;88.76;100626.69;5071854;28;20170;-70
2020/12/13 05:23:23;;;;;;;40.67;17.65;;;;;;;0.58;88.61;100627.28;5054191;28;20037;-69
2020/12/13 05:25:51;;;;;;;35.70;18.20;;;;;;;0.56;88.31;100627.41;5070640;28;20465;-69
2020/12/13 05:28:20;;;;;;;42.88;19.33;;;;;;;0.61;88.54;100633.22;5071759;28;20048;-69
2020/12/13 05:30:47;;;;;;;40.10;17.65;;;;;;;0.51;88.10;100623.38;5054064;28;20437;-70
2020/12/13 05:33:21;;;;;;;49.00;21.27;;;;;;;0.50;88.62;100630.44;5071577;28;20072;-70
2020/12/13 05:35:47;;;;;;;45.67;20.05;;;;;;;0.51;88.61;100636.53;5070238;28;20169;-70
2020/12/13 05:38:13;;;;;;;47.08;21.33;;;;;;;0.46;88.79;100639.44;5070679;28;20058;-70
2020/12/13 05:40:40;;;;;;;47.67;21.55;;;;;;;0.43;89.01;100633.56;5053765;28;20048;-70
2020/12/13 05:43:13;;;;;;;43.45;18.80;;;;;;;0.39;88.87;100633.75;5070053;28;20036;-70
2020/12/13 05:48:44;;;;;;;46.67;20.45;;;;;;;0.48;88.75;100642.00;5071288;28;20165;-70
2020/12/13 05:53:27;;;;;;;49.30;22.83;;;;;;;0.44;88.84;100648.38;5071534;28;20090;-70
2020/12/13 05:55:53;;;;;;;52.22;22.52;;;;;;;0.40;89.12;100645.13;5071079;28;20079;-70
2020/12/13 05:58:24;;;;;;;57.58;23.40;;;;;;;0.38;89.15;100647.00;5071276;28;20371;-69
2020/12/13 06:00:51;;;;;;;49.92;22.58;;;;;;;0.38;88.97;100647.84;5071100;28;20119;-70
2020/12/13 06:03:29;;;;;;;52.80;21.65;;;;;;;0.37;89.03;100645.31;5071088;28;20055;-70
2020/12/13 06:06:01;;;;;;;51.38;21.55;;;;;;;0.35;89.14;100645.41;5069976;28;20032;-70
2020/12/13 06:08:38;;;;;;;48.10;21.88;;;;;;;0.34;89.20;100651.59;5071275;28;20032;-69
2020/12/13 06:11:06;;;;;;;51.92;22.50;;;;;;;0.33;89.06;100649.09;5070122;28;20040;-69
2020/12/13 06:13:39;;;;;;;50.17;21.80;;;;;;;0.40;88.84;100650.38;5070332;28;20025;-70
2020/12/13 06:16:05;;;;;;;49.80;22.42;;;;;;;0.28;89.03;100651.16;5070750;28;20115;-70
2020/12/13 06:18:30;;;;;;;51.28;22.58;;;;;;;0.28;89.09;100649.38;5071253;28;20115;-68
2020/12/13 06:21:00;;;;;;;50.57;20.33;;;;;;;0.28;89.08;100654.63;5071113;28;20128;-68
2020/12/13 06:23:30;;;;;;;59.75;21.42;;;;;;;0.30;88.96;100650.09;5071055;28;20032;-68
2020/12/13 06:25:55;;;;;;;55.35;23.83;;;;;;;0.27;88.89;100666.06;5070731;28;20172;-68
2020/12/13 06:28:21;;;;;;;52.10;22.50;;;;;;;0.17;89.06;100662.34;5070178;28;20025;-68
2020/12/13 06:30:46;;;;;;;57.70;23.52;;;;;;;0.13;89.12;100653.81;5070055;28;20503;-69
2020/12/13 06:33:12;;;;;;;57.90;23.73;;;;;;;0.12;89.42;100657.41;5071065;28;20457;-68
2020/12/13 06:35:37;;;;;;;55.33;22.27;;;;;;;0.22;89.31;100657.66;5070782;28;20282;-68
2020/12/13 06:38:14;;;;;;;56.03;24.63;;;;;;;0.18;89.45;100658.78;5069916;28;20032;-68
2020/12/13 06:40:40;;;;;;;53.65;22.77;;;;;;;0.27;89.52;100663.44;5070070;28;20076;-68
2020/12/13 06:43:08;;;;;;;62.37;25.30;;;;;;;0.58;89.97;100669.34;5070910;28;20071;-68
2020/12/13 06:45:34;;;;;;;58.55;27.35;;;;;;;1.47;91.09;100663.34;5068220;28;20470;-68
2020/12/13 06:47:59;;;;;;;44.35;21.10;;;;;;;0.66;89.16;100666.22;5069396;28;20032;-68
2020/12/13 06:50:24;;;;;;;50.50;22.93;;;;;;;1.00;89.55;100670.06;5069867;28;20048;-68
2020/12/13 06:52:51;;;;;;;45.60;21.40;;;;;;;1.14;88.85;100672.59;5069584;28;20095;-68
2020/12/13 06:55:17;;;;;;;52.65;21.55;;;;;;;0.96;86.63;100671.22;5072495;28;20051;-68
2020/12/13 06:57:46;;;;;;;48.97;23.48;;;;;;;0.43;87.53;100668.56;5074309;28;20040;-68
2020/12/13 07:00:11;;;;;;;51.42;22.83;;;;;;;0.43;88.26;100673.81;5074449;28;20056;-68
2020/12/13 07:02:44;;;;;;;55.42;24.90;;;;;;;0.29;88.45;100679.94;5073529;28;20520;-69
2020/12/13 07:05:10;;;;;;;63.75;25.73;;;;;;;0.18;89.08;100678.00;5074284;28;20036;-69
2020/12/13 07:07:37;;;;;;;53.10;24.23;;;;;;;0.27;89.05;100681.00;5073924;28;20051;-69
2020/12/13 07:10:08;;;;;;;59.78;25.35;;;;;;;0.15;89.04;100670.31;5073316;28;20041;-69
2020/12/13 07:12:34;;;;;;;59.55;25.10;;;;;;;0.09;89.53;100673.31;5073370;28;20069;-69
2020/12/13 07:15:00;;;;;;;66.00;25.42;;;;;;;0.15;89.65;100685.25;5056545;28;20042;-69
2020/12/13 07:17:30;;;;;;;67.45;28.02;;;;;;;0.12;89.89;100688.91;5073817;28;20028;-69
2020/12/13 07:19:57;;;;;;;76.75;29.13;;;;;;;0.03;90.02;100692.09;5073739;28;20366;-70
2020/12/13 07:22:31;;;;;;;78.30;29.20;;;;;;;0.00;90.38;100687.06;5072880;28;20039;-70
2020/12/13 07:24:57;;;;;;;72.55;30.08;;;;;;;-0.01;90.53;100690.59;5074041;28;20120;-70
2020/12/13 07:27:22;;;;;;;76.18;28.48;;;;;;;-0.02;90.46;100699.44;5072660;28;20108;-70
2020/12/13 07:29:48;;;;;;;71.33;26.73;;;;;;;-0.15;90.89;100691.47;5073947;28;20457;-69
2020/12/13 07:32:13;;;;;;;72.93;26.83;;;;;;;-0.11;90.92;100695.59;5072915;28;20044;-69
2020/12/13 07:34:39;;;;;;;70.90;27.47;;;;;;;-0.07;91.04;100702.34;5072845;28;20143;-69
2020/12/13 07:37:04;;;;;;;76.97;28.87;;;;;;;-0.09;91.08;100706.84;5073584;28;20040;-70
2020/12/13 07:39:29;;;;;;;80.10;29.77;;;;;;;0.05;91.05;100703.34;5072684;28;20053;-70
2020/12/13 07:41:55;;;;;;;75.27;29.03;;;;;;;0.04;90.88;100711.31;5073779;28;20033;-70
2020/12/13 07:44:29;;;;;;;74.82;28.13;;;;;;;-0.05;90.92;100716.22;5073681;28;20531;-70
2020/12/13 07:46:55;;;;;;;75.43;29.43;;;;;;;-0.07;90.83;100725.97;5072079;28;20048;-70
2020/12/13 07:49:22;;;;;;;75.33;29.73;;;;;;;-0.11;90.93;100729.69;5073441;28;20063;-70
2020/12/13 07:51:53;;;;;;;81.50;32.45;;;;;;;-0.15;90.98;100730.81;5072442;28;20278;-70
2020/12/13 07:54:26;;;;;;;70.32;26.60;;;;;;;-0.08;91.13;100734.75;5072531;28;20044;-69
2020/12/13 07:56:53;;;;;;;74.07;28.95;;;;;;;-0.20;91.19;100737.31;5073184;28;20401;-70
2020/12/13 07:59:20;;;;;;;82.40;29.30;;;;;;;-0.18;91.31;100736.28;5072151;28;20458;-69
2020/12/13 08:01:47;;;;;;;73.60;31.38;;;;;;;-0.09;91.20;100738.31;5072095;28;20068;-70
2020/12/13 08:04:14;;;;;;;77.32;27.45;;;;;;;-0.02;91.19;100744.88;5073157;28;20043;-69
2020/12/13 08:06:40;;;;;;;86.28;31.98;;;;;;;-0.04;91.11;100752.00;5072354;28;20467;-69
2020/12/13 08:09:13;;;;;;;84.25;32.97;;;;;;;-0.16;91.37;100744.06;5055681;28;20028;-69
2020/12/13 08:11:39;;;;;;;84.95;32.90;;;;;;;-0.18;91.52;100759.88;5072221;28;20036;-69
2020/12/13 08:14:06;;;;;;;80.05;31.95;;;;;;;-0.23;91.52;100752.28;5055264;28;20032;-69
2020/12/13 08:16:32;;;;;;;82.93;33.60;;;;;;;-0.22;91.52;100758.38;5072593;28;20362;-69
2020/12/13 08:19:24;;;;;;;;;;;;;;;-0.09;91.66;100764.56;5072601;28;20041;-69
2020/12/13 08:21:57;;;;;;;81.50;29.73;;;;;;;-0.06;91.45;100760.91;5056188;28;20317;-69
2020/12/13 08:24:24;;;;;;;72.90;29.35;;;;;;;-0.11;91.23;100760.34;5055221;28;20037;-69
2020/12/13 08:26:52;;;;;;;94.82;31.20;;;;;;;0.15;92.06;100764.00;5072513;28;20032;-68
2020/12/13 08:29:18;;;;;;;68.35;27.08;;;;;;;0.04;91.09;100761.19;5072792;28;20028;-69
2020/12/13 08:31:43;;;;;;;66.55;25.00;;;;;;;0.04;91.00;100763.81;5071981;28;20446;-69
2020/12/13 08:34:08;;;;;;;50.20;22.80;;;;;;;-0.04;90.45;100761.66;5071554;28;20046;-69
2020/12/13 08:36:35;;;;;;;59.03;25.70;;;;;;;-0.13;90.80;100763.06;5071517;28;20121;-69
2020/12/13 08:39:00;;;;;;;;;;;;;;;-0.05;90.88;100763.47;5070110;28;20040;-69
2020/12/13 08:41:25;;;;;;;;;;;;;;;-0.04;90.85;100765.13;5070373;28;19942;-69
2020/12/13 08:43:51;;;;;;;62.63;25.70;;;;;;;-0.12;90.96;100763.91;5053186;28;19923;-68
2020/12/13 08:46:28;;;;;;;58.90;24.43;;;;;;;-0.06;91.08;100780.13;5069595;28;20033;-69
2020/12/13 08:48:53;;;;;;;71.80;26.35;;;;;;;-0.06;90.96;100774.03;5069760;28;20083;-69
2020/12/13 08:51:25;;;;;;;66.43;27.50;;;;;;;-0.06;90.69;100772.25;5070815;28;20072;-70
2020/12/13 08:53:58;;;;;;;66.03;26.08;;;;;;;-0.14;90.58;100773.66;5071814;28;20035;-69
2020/12/13 08:56:32;;;;;;;75.95;27.98;;;;;;;-0.09;90.80;100769.00;5070979;28;20048;-70
2020/12/13 08:58:57;;;;;;;72.82;26.77;;;;;;;-0.13;90.74;100775.34;5071248;28;20123;-69
2020/12/13 09:01:28;;;;;;;65.43;26.90;;;;;;;0.01;90.86;100782.38;5072094;28;20040;-69
2020/12/13 09:03:55;;;;;;;62.90;27.77;;;;;;;0.05;90.69;100781.25;5071091;28;20040;-69
2020/12/13 09:06:24;;;;;;;;;;;;;;;0.06;90.51;100782.94;5072092;28;20036;-70
2020/12/13 09:08:49;;;;;;;55.83;25.15;;;;;;;0.06;90.44;100786.41;5072155;28;19966;-70
2020/12/13 09:11:28;;;;;;;61.20;26.50;;;;;;;0.11;90.30;100780.88;5070955;28;20036;-70
2020/12/13 09:13:53;;;;;;;68.20;27.67;;;;;;;0.12;90.04;100790.47;5071114;28;20474;-70
2020/12/13 09:16:30;;;;;;;61.47;27.23;;;;;;;0.17;90.01;100785.75;5070473;28;20060;-70
2020/12/13 09:19:10;;;;;;;64.38;25.73;;;;;;;0.37;90.03;100792.38;5071879;28;20434;-69
2020/12/13 09:21:57;;;;;;;65.30;25.08;;;;;;;0.38;89.73;100799.34;5069772;28;20363;-69
2020/12/13 09:24:26;;;;;;;69.65;29.15;;;;;;;0.32;89.71;100799.72;5071625;28;20036;-70
2020/12/13 09:27:08;;;;;;;65.10;28.92;;;;;;;0.20;89.59;100796.91;5070073;28;20115;-69
2020/12/13 09:29:36;;;;;;;65.20;26.73;;;;;;;0.18;89.86;100800.56;5071505;28;20047;-70
2020/12/13 09:32:02;;;;;;;80.18;29.48;;;;;;;0.20;90.04;100798.69;5070452;28;20037;-69
2020/12/13 09:34:27;;;;;;;;;;;;;;;0.27;90.07;100796.53;5072030;28;20789;-70
2020/12/13 09:36:53;;;;;;;64.07;27.08;;;;;;;0.34;90.24;100800.47;5071112;28;19920;-70
2020/12/13 09:39:18;;;;;;;63.30;27.77;;;;;;;0.29;90.00;100803.38;5070441;28;20047;-70
2020/12/13 09:41:44;;;;;;;60.57;25.10;;;;;;;0.46;89.74;100809.34;5070123;28;20033;-70
2020/12/13 09:44:09;;;;;;;65.03;29.13;;;;;;;0.36;89.35;100817.81;5070540;28;20067;-70
2020/12/13 09:46:35;;;;;;;63.40;26.70;;;;;;;0.34;89.35;100824.94;5070856;28;20119;-70
2020/12/13 09:49:00;;;;;;;55.42;25.90;;;;;;;0.30;89.58;100814.72;5071344;28;20029;-70
2020/12/13 09:51:26;;;;;;;64.70;26.80;;;;;;;0.32;89.34;100812.84;5070291;28;20111;-70
2020/12/13 09:53:51;;;;;;;69.70;26.27;;;;;;;0.41;89.49;100815.75;5070355;28;20127;-70
2020/12/13 09:56:18;;;;;;;69.30;25.83;;;;;;;0.43;89.00;100807.78;5069776;28;20079;-70
2020/12/13 09:58:44;;;;;;;57.42;24.33;;;;;;;0.47;89.18;100813.66;5070216;28;20636;-69
2020/12/13 10:01:11;;;;;;;60.17;27.23;;;;;;;0.54;89.42;100809.72;5071068;28;20055;-70
2020/12/13 10:03:38;;;;;;;59.28;23.95;;;;;;;0.43;89.18;100815.66;5069969;28;20028;-70
2020/12/13 10:06:27;;;;;;;58.58;24.75;;;;;;;0.37;89.09;100805.50;5069771;28;20047;-69
2020/12/13 10:11:27;;;;;;;60.75;27.63;;;;;;;0.62;89.59;100820.59;5070380;28;20032;-70
2020/12/13 10:13:53;;;;;;;61.83;25.48;;;;;;;0.46;89.50;100817.25;5070126;28;20552;-70
2020/12/13 10:16:18;;;;;;;60.77;26.10;;;;;;;0.64;89.67;100816.09;5069822;28;20106;-70
2020/12/13 10:18:43;;;;;;;68.07;26.37;;;;;;;0.72;89.51;100813.81;5070199;28;20051;-69
2020/12/13 10:21:09;;;;;;;68.97;26.37;;;;;;;0.63;88.70;100814.38;5069781;28;20033;-69
2020/12/13 10:23:34;;;;;;;63.97;27.88;;;;;;;0.51;89.37;100820.41;5070828;28;20067;-69
2020/12/13 10:26:00;;;;;;;64.10;26.23;;;;;;;0.48;89.04;100821.47;5070564;28;20044;-70
2020/12/13 10:28:25;;;;;;;55.73;24.47;;;;;;;0.48;89.09;100815.38;5072477;28;20033;-70
2020/12/13 10:30:51;;;;;;;57.20;24.93;;;;;;;0.56;89.29;100813.09;5074991;28;20078;-69
2020/12/13 10:33:17;;;;;;;86.10;35.30;;;;;;;0.55;89.06;100816.66;5074072;28;20057;-69
2020/12/13 10:35:42;;;;;;;80.05;36.35;;;;;;;0.66;89.06;100818.63;5073594;28;20074;-69
2020/12/13 10:38:08;;;;;;;63.65;26.23;;;;;;;0.60;88.82;100809.34;5074125;28;20052;-69
2020/12/13 10:40:34;;;;;;;71.40;27.27;;;;;;;0.63;89.37;100809.13;5071976;28;20067;-69
2020/12/13 10:42:59;;;;;;;;;;;;;;;0.60;89.08;100809.34;5072823;28;20032;-69
2020/12/13 10:45:25;;;;;;;72.80;30.90;;;;;;;0.55;89.09;100816.66;5072397;28;20421;-69
2020/12/13 10:47:50;;;;;;;62.47;26.20;;;;;;;0.62;88.95;100816.19;5072088;28;20040;-69
2020/12/13 10:50:15;;;;;;;69.30;26.40;;;;;;;0.62;89.01;100808.28;5073152;28;20024;-69
2020/12/13 10:52:41;;;;;;;71.30;31.10;;;;;;;0.67;88.76;100815.88;5073344;28;20056;-69
2020/12/13 10:55:06;;;;;;;62.57;26.50;;;;;;;0.60;88.60;100818.06;5074304;28;20036;-69
2020/12/13 10:57:31;;;;;;;65.60;29.70;;;;;;;0.59;88.83;100815.53;5073504;28;20047;-69
2020/12/13 10:59:57;;;;;;;66.37;27.73;;;;;;;0.69;89.01;100816.63;5073660;28;20040;-69
2020/12/13 11:02:22;;;;;;;80.40;32.50;;;;;;;0.73;88.93;100812.03;5056563;28;20040;-69
2020/12/13 11:04:47;;;;;;;80.67;28.07;;;;;;;0.79;88.13;100809.84;5073371;28;20059;-69
2020/12/13 11:07:12;;;;;;;65.73;27.87;;;;;;;0.77;88.46;100818.78;5073752;28;20374;-69
2020/12/13 11:09:38;;;;;;;65.00;25.23;;;;;;;0.77;88.68;100821.41;5074284;28;20385;-69
2020/12/13 11:12:03;;;;;;;63.77;29.83;;;;;;;0.89;88.65;100814.50;5074317;28;20082;-69
2020/12/13 11:14:28;;;;;;;63.07;27.10;;;;;;;0.91;88.73;100820.53;5074245;28;20115;-69
2020/12/13 11:16:54;;;;;;;76.47;29.47;;;;;;;0.96;88.60;100810.53;5073966;28;20150;-69
2020/12/13 11:19:19;;;;;;;66.03;26.83;;;;;;;0.86;88.76;100812.09;5073156;28;20119;-69
2020/12/13 11:21:45;;;;;;;65.60;26.13;;;;;;;0.82;88.69;100812.28;5073268;28;20083;-69
2020/12/13 11:24:11;;;;;;;;;;;;;;;0.82;88.47;100814.94;5074589;28;20036;-69
2020/12/13 11:26:36;;;;;;;;;;;;;;;0.71;88.56;100816.56;5074194;28;20258;-69
2020/12/13 11:29:01;;;;;;;61.10;24.13;;;;;;;0.72;88.56;100818.22;5074008;28;19927;-69